Time;durP1;ratioP1;P1;durP2;ratioP2;P2;SDS_P1;SDS_P2;PMS_P1;PMS_P2;Temp;Humidity;BMP_temperature;BMP_pressure;BME280_temperature;BME280_humidity;BME280_pressure;Samples;Min_cycle;Max_cycle;Signal;HPM_P1;HPM_P2
2022/05/26 00:01:29;;;;;;;2.00;1.90;;;;;;;11.20;100.00;99762.41;5010265;28;20215;-78
2022/05/26 00:03:56;;;;;;;2.10;1.90;;;;;;;11.13;100.00;99764.34;5010176;28;20191;-77
2022/05/26 00:06:24;;;;;;;2.43;2.00;;;;;;;11.11;100.00;99761.03;5009886;28;20191;-76
2022/05/26 00:08:52;;;;;;;2.00;1.87;;;;;;;11.25;100.00;99765.25;5010141;28;20219;-77
2022/05/26 00:11:31;;;;;;;2.97;1.83;;;;;;;11.14;100.00;99757.94;5009747;28;20207;-77
2022/05/26 00:14:01;;;;;;;1.80;1.70;;;;;;;11.13;100.00;99763.50;5010527;28;20204;-78
2022/05/26 00:16:28;;;;;;;2.40;2.00;;;;;;;11.05;100.00;99764.63;5014128;28;20179;-77
2022/05/26 00:18:55;;;;;;;2.10;2.00;;;;;;;11.01;100.00;99766.09;5014268;28;20199;-77
2022/05/26 00:21:22;;;;;;;3.40;2.13;;;;;;;11.13;100.00;99766.19;5013842;28;20275;-78
2022/05/26 00:23:49;;;;;;;3.27;2.10;;;;;;;11.00;100.00;99764.44;5013983;28;20211;-78
2022/05/26 00:26:15;;;;;;;3.37;2.30;;;;;;;10.93;100.00;99767.16;5013573;28;20188;-77
2022/05/26 00:28:42;;;;;;;2.30;2.10;;;;;;;10.88;100.00;99775.03;5013777;28;20741;-77
2022/05/26 00:31:09;;;;;;;2.73;1.93;;;;;;;10.86;100.00;99774.47;5013815;28;20293;-77
2022/05/26 00:33:36;;;;;;;4.03;1.90;;;;;;;10.85;100.00;99772.00;5013937;28;20546;-77
2022/05/26 00:36:05;;;;;;;3.30;1.93;;;;;;;10.79;100.00;99773.66;5013584;28;20226;-78
2022/05/26 00:38:32;;;;;;;1.90;1.80;;;;;;;10.73;100.00;99774.53;5012244;28;20229;-77
2022/05/26 00:41:07;;;;;;;2.27;1.90;;;;;;;10.70;100.00;99774.16;5013441;28;20225;-77
2022/05/26 00:43:34;;;;;;;2.10;2.00;;;;;;;10.65;100.00;99777.47;5013545;28;20678;-77
2022/05/26 00:46:07;;;;;;;2.17;1.97;;;;;;;10.57;100.00;99770.53;5013621;28;20184;-77
2022/05/26 00:48:43;;;;;;;1.90;1.80;;;;;;;10.52;100.00;99774.88;5012264;28;20182;-77
2022/05/26 00:51:10;;;;;;;2.40;2.20;;;;;;;10.46;100.00;99771.22;5011858;28;20277;-77
2022/05/26 00:53:49;;;;;;;2.43;2.10;;;;;;;10.48;100.00;99779.88;5012044;28;20208;-77
2022/05/26 00:56:25;;;;;;;3.30;2.20;;;;;;;10.37;100.00;99774.34;5013165;28;20175;-77
2022/05/26 00:58:57;;;;;;;2.77;2.00;;;;;;;10.26;100.00;99778.56;5012057;28;20253;-77
2022/05/26 01:01:24;;;;;;;2.10;1.90;;;;;;;10.22;100.00;99771.94;5011993;28;20187;-77
2022/05/26 01:03:53;;;;;;;2.30;2.10;;;;;;;10.20;100.00;99782.06;5013157;28;20184;-77
2022/05/26 01:06:29;;;;;;;2.37;2.17;;;;;;;10.13;100.00;99781.22;5011864;28;20258;-77
2022/05/26 01:08:58;;;;;;;3.03;2.30;;;;;;;10.07;100.00;99774.06;5012081;28;20262;-77
2022/05/26 01:11:27;;;;;;;3.53;1.90;;;;;;;10.05;100.00;99773.44;5012966;28;20203;-77
2022/05/26 01:13:58;;;;;;;2.43;2.00;;;;;;;9.99;100.00;99772.44;5012419;28;20221;-77
2022/05/26 01:16:45;;;;;;;2.53;2.33;;;;;;;9.92;100.00;99774.34;5012740;28;20604;-77
2022/05/26 01:19:44;;;;;;;2.10;2.00;;;;;;;9.95;100.00;99773.91;5011174;28;20560;-78
2022/05/26 01:22:48;;;;;;;2.50;2.10;;;;;;;9.90;100.00;99770.22;5012655;28;20183;-78
2022/05/26 01:25:33;;;;;;;3.50;2.10;;;;;;;9.86;100.00;99769.00;5012291;28;20632;-77
2022/05/26 01:28:25;;;;;;;2.40;2.20;;;;;;;9.88;100.00;99764.28;5012498;28;20262;-78
2022/05/26 01:30:58;;;;;;;2.40;1.90;;;;;;;9.81;100.00;99760.78;5012718;28;20199;-77
2022/05/26 01:33:50;;;;;;;2.57;2.37;;;;;;;9.78;100.00;99762.03;5012474;28;20327;-77
2022/05/26 01:36:24;;;;;;;2.87;2.20;;;;;;;9.75;100.00;99756.28;5011100;28;20200;-79
2022/05/26 01:39:02;;;;;;;2.30;1.90;;;;;;;9.77;100.00;99763.06;5011105;28;20217;-77
2022/05/26 01:41:32;;;;;;;2.00;1.90;;;;;;;9.77;100.00;99754.22;5011434;28;20174;-78
2022/05/26 01:44:16;;;;;;;2.07;1.97;;;;;;;9.76;100.00;99748.03;5012460;28;20240;-78
2022/05/26 01:46:44;;;;;;;5.57;2.20;;;;;;;9.75;100.00;99753.63;5012091;28;20601;-78
2022/05/26 01:49:41;;;;;;;2.00;1.90;;;;;;;9.71;100.00;99756.69;5012111;28;20302;-78
2022/05/26 01:52:14;;;;;;;2.13;1.97;;;;;;;9.71;100.00;99754.03;5009623;28;20321;-79
2022/05/26 01:54:47;;;;;;;2.60;2.20;;;;;;;9.66;100.00;99753.00;5011376;28;20179;-77
2022/05/26 01:57:58;;;;;;;2.63;2.10;;;;;;;9.64;100.00;99761.25;5011408;28;20677;-77
2022/05/26 02:00:25;;;;;;;2.80;2.00;;;;;;;9.63;100.00;99766.81;5004201;28;20230;-78
2022/05/26 02:03:14;;;;;;;6.63;1.83;;;;;;;9.57;100.00;99765.78;5012202;28;20218;-78
2022/05/26 02:05:45;;;;;;;2.30;2.07;;;;;;;9.61;100.00;99775.03;5011026;28;20175;-77
2022/05/26 02:08:17;;;;;;;2.33;2.10;;;;;;;9.59;100.00;99771.75;5011950;28;20207;-78
2022/05/26 02:10:49;;;;;;;2.20;2.10;;;;;;;9.70;100.00;99770.31;5010905;28;20221;-77
2022/05/26 02:13:38;;;;;;;2.40;2.20;;;;;;;9.60;100.00;99781.44;5011434;28;20858;-78
2022/05/26 02:16:17;;;;;;;2.00;1.90;;;;;;;9.58;100.00;99782.66;5011744;28;20282;-77
2022/05/26 02:18:56;;;;;;;1.97;1.87;;;;;;;9.56;100.00;99776.72;5010299;28;20182;-78
2022/05/26 02:21:32;;;;;;;2.33;1.90;;;;;;;9.61;100.00;99783.06;5010020;28;20362;-77
2022/05/26 02:24:07;;;;;;;2.23;2.03;;;;;;;9.63;100.00;99781.00;5011575;28;20261;-77
2022/05/26 02:26:35;;;;;;;2.00;1.90;;;;;;;9.64;100.00;99776.47;5011557;28;20203;-77
2022/05/26 02:31:51;;;;;;;2.33;2.20;;;;;;;9.72;100.00;99777.06;5010607;28;20682;-78
2022/05/26 02:34:19;;;;;;;2.10;1.90;;;;;;;9.75;100.00;99777.69;5009893;28;20183;-78
2022/05/26 02:36:47;;;;;;;2.10;1.90;;;;;;;9.75;100.00;99773.16;5010589;28;20187;-77
2022/05/26 02:39:14;;;;;;;2.23;2.03;;;;;;;9.79;100.00;99781.59;5009903;28;20187;-78
2022/05/26 02:41:41;;;;;;;2.20;2.00;;;;;;;9.82;100.00;99781.16;5011770;28;20272;-77
2022/05/26 02:44:08;;;;;;;2.00;1.90;;;;;;;9.86;100.00;99777.03;5010425;28;20219;-76
2022/05/26 02:46:46;;;;;;;2.10;2.00;;;;;;;9.94;100.00;99782.13;5010488;28;20187;-77
2022/05/26 02:49:42;;;;;;;2.40;2.00;;;;;;;9.94;100.00;99776.78;5010364;28;20593;-77
2022/05/26 02:52:34;;;;;;;2.63;1.83;;;;;;;9.99;100.00;99782.31;5006518;28;20313;-77
2022/05/26 02:55:25;;;;;;;2.00;1.80;;;;;;;10.00;100.00;99781.31;5010978;28;20226;-76
2022/05/26 02:58:18;;;;;;;2.60;1.67;;;;;;;10.01;100.00;99786.44;5010766;28;20310;-78
2022/05/26 03:01:10;;;;;;;1.90;1.77;;;;;;;10.03;100.00;99776.34;4995215;28;20506;-77
2022/05/26 03:03:44;;;;;;;2.53;1.70;;;;;;;10.03;100.00;99784.38;5009431;28;20175;-77
2022/05/26 03:06:23;;;;;;;3.13;1.93;;;;;;;10.06;100.00;99789.31;5009383;28;20208;-77
2022/05/26 03:08:52;;;;;;;2.20;1.70;;;;;;;10.07;100.00;99788.28;5010932;28;20221;-77
2022/05/26 03:11:23;;;;;;;2.13;1.93;;;;;;;10.08;100.00;99794.44;5009188;28;20862;-77
2022/05/26 03:13:50;;;;;;;3.43;2.00;;;;;;;10.11;100.00;99796.72;5010805;28;20661;-78
2022/05/26 03:16:17;;;;;;;2.07;1.70;;;;;;;10.14;100.00;99797.09;5010104;28;20219;-77
2022/05/26 03:18:45;;;;;;;1.67;1.57;;;;;;;10.18;100.00;99796.69;5010622;28;20187;-77
2022/05/26 03:21:12;;;;;;;2.97;1.80;;;;;;;10.21;100.00;99797.13;5010169;28;20187;-78
2022/05/26 03:23:39;;;;;;;3.33;1.80;;;;;;;10.26;100.00;99794.63;5010326;28;20226;-78
2022/05/26 03:26:07;;;;;;;1.60;1.40;;;;;;;10.33;100.00;99799.94;5010428;28;20191;-78
2022/05/26 03:28:34;;;;;;;2.63;1.67;;;;;;;10.39;100.00;99804.44;5010288;28;20206;-77
2022/05/26 03:31:05;;;;;;;1.90;1.70;;;;;;;10.43;100.00;99809.16;5010482;28;20226;-77
2022/05/26 03:40:46;;;;;;;1.73;1.53;;;;;;;10.50;100.00;99804.56;5009968;28;20182;-77
2022/05/26 03:41:50;;;;;;;2.07;1.60;;;;;;;10.72;100.00;99834.53;5010534;28;20203;-77
2022/05/26 03:44:17;;;;;;;1.70;1.60;;;;;;;10.75;100.00;99839.47;5009057;28;20191;-78
2022/05/26 03:46:44;;;;;;;2.00;1.87;;;;;;;10.81;100.00;99829.75;5009231;28;20211;-77
2022/05/26 03:49:11;;;;;;;1.87;1.70;;;;;;;10.85;100.00;99828.28;5010059;28;20175;-78
2022/05/26 03:51:37;;;;;;;1.83;1.60;;;;;;;10.93;100.00;99841.41;5010443;28;20304;-77
2022/05/26 03:54:04;;;;;;;1.33;1.33;;;;;;;11.03;100.00;99844.44;5009075;28;20597;-77
2022/05/26 03:56:31;;;;;;;1.87;1.47;;;;;;;11.49;100.00;99841.38;5010170;28;20180;-77
2022/05/26 03:58:58;;;;;;;1.57;1.47;;;;;;;12.27;100.00;99839.75;5010246;28;20730;-78
2022/05/26 04:01:24;;;;;;;1.60;1.50;;;;;;;13.46;100.00;99843.44;5010269;28;20217;-77
2022/05/26 04:03:51;;;;;;;1.50;1.40;;;;;;;14.42;100.00;99848.25;5010198;28;20533;-77
2022/05/26 04:06:18;;;;;;;1.80;1.30;;;;;;;15.00;100.00;99858.81;5010077;28;20634;-78
2022/05/26 04:08:45;;;;;;;4.13;1.30;;;;;;;15.16;100.00;99858.03;5010438;28;20536;-77
2022/05/26 04:11:12;;;;;;;1.00;1.00;;;;;;;15.18;100.00;99865.88;5010008;28;20303;-77
2022/05/26 04:13:39;;;;;;;1.30;1.13;;;;;;;15.09;100.00;99864.63;5009855;28;20210;-77
2022/05/26 04:16:06;;;;;;;1.43;1.00;;;;;;;15.05;100.00;99861.59;5009885;28;20346;-79
2022/05/26 04:18:34;;;;;;;2.07;1.10;;;;;;;14.89;100.00;99865.91;5010205;28;20256;-78
2022/05/26 04:21:08;;;;;;;27.07;16.33;;;;;;;14.78;100.00;99872.19;5010234;28;20181;-77
2022/05/26 04:23:35;;;;;;;27.07;17.80;;;;;;;14.67;100.00;99878.44;5010693;28;20221;-77
2022/05/26 04:26:04;;;;;;;4.77;3.60;;;;;;;14.53;100.00;99875.19;5010402;28;20229;-78
2022/05/26 04:28:31;;;;;;;3.50;3.30;;;;;;;14.39;100.00;99875.69;5010468;28;20265;-77
2022/05/26 04:30:58;;;;;;;1.27;1.20;;;;;;;14.28;100.00;99877.31;5009108;28;20232;-78
2022/05/26 04:33:25;;;;;;;1.67;1.10;;;;;;;14.21;100.00;99873.13;5009425;28;20211;-77
2022/05/26 04:35:52;;;;;;;2.50;1.07;;;;;;;14.18;100.00;99874.44;5010185;28;20222;-77
2022/05/26 04:38:19;;;;;;;0.93;0.93;;;;;;;14.24;100.00;99869.94;5008546;28;20276;-78
2022/05/26 04:41:04;;;;;;;1.07;0.90;;;;;;;14.28;100.00;99868.41;5008886;28;20283;-79
2022/05/26 04:43:32;;;;;;;1.07;0.97;;;;;;;14.34;100.00;99872.88;5009587;28;20209;-78
2022/05/26 04:45:59;;;;;;;1.67;1.00;;;;;;;14.50;100.00;99877.56;5009773;28;20213;-77
2022/05/26 04:48:26;;;;;;;2.03;0.90;;;;;;;14.64;100.00;99894.28;5009324;28;20562;-79
2022/05/26 04:50:54;;;;;;;0.83;0.83;;;;;;;14.76;100.00;99889.66;5009473;28;20625;-77
2022/05/26 04:53:21;;;;;;;1.20;1.10;;;;;;;14.91;100.00;99890.75;5009366;28;20278;-78
2022/05/26 04:55:54;;;;;;;2.00;0.90;;;;;;;15.10;100.00;99893.25;5009499;28;20192;-78
2022/05/26 04:58:22;;;;;;;1.77;0.87;;;;;;;15.27;100.00;99892.22;5007987;28;20223;-77
2022/05/26 05:00:49;;;;;;;1.00;0.90;;;;;;;15.48;100.00;99897.97;5011329;28;20187;-77
2022/05/26 05:03:16;;;;;;;0.63;0.63;;;;;;;15.63;100.00;99901.75;5012182;28;20216;-78
2022/05/26 05:05:43;;;;;;;0.60;0.60;;;;;;;15.77;100.00;99896.84;5013292;28;20187;-77
2022/05/26 05:08:10;;;;;;;0.70;0.70;;;;;;;15.92;100.00;99901.66;5013219;28;20217;-78
2022/05/26 05:10:37;;;;;;;0.70;0.70;;;;;;;16.04;100.00;99895.09;5013447;28;20222;-77
2022/05/26 05:13:04;;;;;;;1.43;0.80;;;;;;;16.21;100.00;99897.75;5013061;28;20234;-78
2022/05/26 05:15:53;;;;;;;3.23;0.70;;;;;;;16.36;100.00;99897.97;5012797;28;20270;-78
2022/05/26 05:18:23;;;;;;;1.13;0.53;;;;;;;16.44;100.00;99900.22;5011476;28;20182;-78
2022/05/26 05:20:50;;;;;;;1.73;0.70;;;;;;;16.59;100.00;99905.03;5028157;28;20269;-78
2022/05/26 05:23:17;;;;;;;3.60;0.77;;;;;;;16.70;100.00;99901.41;5012582;28;20214;-77
2022/05/26 05:25:47;;;;;;;0.50;0.50;;;;;;;16.80;100.00;99898.78;5011642;28;20195;-78
2022/05/26 05:28:22;;;;;;;0.80;0.80;;;;;;;16.97;100.00;99899.53;5010860;28;20582;-78
2022/05/26 05:30:50;;;;;;;2.40;0.87;;;;;;;17.15;100.00;99904.59;5012467;28;20207;-78
2022/05/26 05:33:21;;;;;;;1.67;0.63;;;;;;;17.25;100.00;99903.06;5011170;28;20277;-78
2022/05/26 05:35:56;;;;;;;0.70;0.70;;;;;;;17.28;100.00;99900.63;5019633;28;20686;-77
2022/05/26 05:38:23;;;;;;;0.70;0.70;;;;;;;17.47;100.00;99907.31;5044371;28;20608;-78
2022/05/26 05:40:49;;;;;;;1.20;0.60;;;;;;;17.68;100.00;99910.25;5045946;28;20190;-77
2022/05/26 05:43:17;;;;;;;1.10;0.70;;;;;;;17.88;100.00;99907.66;5031812;28;20179;-79
2022/05/26 05:45:44;;;;;;;1.10;0.67;;;;;;;18.11;100.00;99906.44;5030769;28;20194;-77
2022/05/26 05:48:10;;;;;;;1.50;0.60;;;;;;;18.27;100.00;99902.75;5031578;28;20205;-78
2022/05/26 05:50:37;;;;;;;0.83;0.70;;;;;;;18.45;100.00;99900.41;5031754;28;20229;-77
2022/05/26 05:53:04;;;;;;;0.93;0.70;;;;;;;18.73;100.00;99909.22;5046930;28;20230;-77
2022/05/26 05:55:31;;;;;;;0.70;0.67;;;;;;;18.95;100.00;99898.16;5031858;28;20178;-78
2022/05/26 05:57:58;;;;;;;0.73;0.73;;;;;;;18.89;100.00;99903.59;5031697;28;20231;-79
2022/05/26 06:00:25;;;;;;;0.73;0.70;;;;;;;18.77;100.00;99903.00;5031439;28;20187;-79
2022/05/26 06:02:55;;;;;;;0.90;0.60;;;;;;;18.67;100.00;99908.38;5030242;28;20619;-78
2022/05/26 06:05:22;;;;;;;0.73;0.63;;;;;;;18.66;100.00;99905.97;5031451;28;20184;-78
2022/05/26 06:07:49;;;;;;;2.57;0.70;;;;;;;18.63;100.00;99907.28;5031481;28;20185;-78
2022/05/26 06:10:15;;;;;;;1.13;0.70;;;;;;;18.78;100.00;99904.66;5031464;28;20266;-78
2022/05/26 06:12:42;;;;;;;1.30;0.80;;;;;;;18.95;100.00;99903.59;5030433;28;20206;-78
2022/05/26 06:15:09;;;;;;;1.97;0.70;;;;;;;19.13;100.00;99898.47;5031184;28;20219;-78
2022/05/26 06:17:36;;;;;;;0.60;0.60;;;;;;;19.27;100.00;99899.56;5031400;28;20188;-78
2022/05/26 06:20:04;;;;;;;0.60;0.60;;;;;;;19.46;100.00;99896.38;5030219;28;20206;-78
2022/05/26 06:22:32;;;;;;;1.27;0.60;;;;;;;19.59;100.00;99896.66;5031128;28;20216;-78
2022/05/26 06:25:01;;;;;;;0.67;0.67;;;;;;;19.79;100.00;99904.78;5030116;28;20188;-78
2022/05/26 06:30:16;;;;;;;1.03;0.60;;;;;;;20.24;100.00;99916.69;5031215;28;20205;-79
2022/05/26 06:38:23;;;;;;;0.70;0.60;;;;;;;20.77;88.03;99915.16;5043955;28;20180;-80
2022/05/26 06:40:51;;;;;;;1.10;0.70;;;;;;;20.83;91.16;99915.97;5031112;28;20718;-81
2022/05/26 06:43:18;;;;;;;1.43;0.73;;;;;;;20.84;87.70;99910.25;5030703;28;20189;-81
2022/05/26 06:45:46;;;;;;;1.27;0.73;;;;;;;20.94;92.01;99920.25;5046366;28;20197;-80
2022/05/26 06:48:14;;;;;;;2.47;0.70;;;;;;;20.99;89.66;99915.63;5029420;28;20227;-80
2022/05/26 06:50:41;;;;;;;0.60;0.60;;;;;;;21.14;86.69;99924.81;5031043;28;20242;-80
2022/05/26 06:53:09;;;;;;;1.23;0.73;;;;;;;21.16;85.14;99917.97;5030322;28;20231;-81
2022/05/26 06:55:35;;;;;;;0.80;0.60;;;;;;;21.30;85.11;99921.72;5030932;28;20188;-80
2022/05/26 06:58:02;;;;;;;1.53;0.80;;;;;;;21.36;87.82;99917.03;5030727;28;20289;-81
2022/05/26 07:00:29;;;;;;;0.80;0.70;;;;;;;21.45;90.11;99920.78;5030502;28;20187;-80
2022/05/26 07:02:56;;;;;;;0.70;0.70;;;;;;;21.64;86.10;99916.28;5030490;28;20197;-81
2022/05/26 07:05:23;;;;;;;1.00;0.70;;;;;;;21.77;84.01;99915.63;5030625;28;20242;-81
2022/05/26 07:07:49;;;;;;;0.77;0.77;;;;;;;22.01;83.54;99917.63;5029273;28;20541;-80
2022/05/26 07:10:16;;;;;;;1.00;0.70;;;;;;;22.30;80.59;99921.16;5030336;28;20250;-81
2022/05/26 07:12:43;;;;;;;1.17;0.77;;;;;;;22.87;78.52;99922.09;5045741;28;20233;-81
2022/05/26 07:15:11;;;;;;;0.60;0.60;;;;;;;23.01;79.38;99923.00;5030222;28;20181;-81
2022/05/26 07:17:44;;;;;;;2.20;0.80;;;;;;;23.06;74.99;99925.66;5030574;28;20231;-80
2022/05/26 07:20:11;;;;;;;1.27;0.80;;;;;;;23.23;72.99;99924.06;5030235;28;20221;-80
2022/05/26 07:22:38;;;;;;;1.55;0.80;;;;;;;23.11;74.52;99926.41;5030598;28;20252;-82
2022/05/26 07:25:05;;;;;;;0.77;0.70;;;;;;;23.06;73.75;99929.22;5029218;28;20249;-82
2022/05/26 07:27:32;;;;;;;1.50;0.95;;;;;;;23.15;73.72;99924.72;5029482;28;20218;-81
2022/05/26 07:29:59;;;;;;;2.50;0.90;;;;;;;23.10;71.96;99924.78;5029516;28;20210;-81
2022/05/26 07:32:27;;;;;;;1.45;0.80;;;;;;;23.05;73.42;99926.81;5028818;28;20885;-81
2022/05/26 07:34:53;;;;;;;0.70;0.70;;;;;;;23.10;73.00;99929.44;5030364;28;20180;-81
2022/05/26 07:42:52;;;;;;;1.27;0.82;;;;;;;23.15;71.22;99926.63;5029820;28;20176;-80
2022/05/26 07:45:19;;;;;;;1.63;0.80;;;;;;;22.98;72.51;99921.69;5029846;28;20187;-80
2022/05/26 07:47:47;;;;;;;1.20;0.90;;;;;;;22.99;79.77;99919.78;5028346;28;20233;-79
2022/05/26 07:50:19;;;;;;;0.70;0.70;;;;;;;23.10;78.59;99929.44;5029778;28;20180;-80
2022/05/26 07:52:48;;;;;;;1.58;0.70;;;;;;;23.19;70.53;99928.47;5029765;28;20243;-80
2022/05/26 07:55:15;;;;;;;0.93;0.80;;;;;;;23.35;72.36;99922.81;5044844;28;20555;-80
2022/05/26 07:57:42;;;;;;;1.38;0.60;;;;;;;23.45;69.96;99926.22;5029578;28;20255;-80
2022/05/26 08:00:10;;;;;;;1.90;0.77;;;;;;;23.61;68.38;99927.59;5029828;28;20260;-80
2022/05/26 08:02:40;;;;;;;0.75;0.75;;;;;;;23.73;63.65;99924.41;5029872;28;20203;-80
2022/05/26 08:05:09;;;;;;;1.33;0.70;;;;;;;23.87;64.20;99924.44;5029535;28;20189;-79
2022/05/26 08:07:36;;;;;;;1.10;0.60;;;;;;;24.00;64.79;99918.19;5045086;28;20184;-78
2022/05/26 08:10:03;;;;;;;1.20;0.80;;;;;;;24.20;65.88;99930.72;5029543;28;20210;-80
2022/05/26 08:12:30;;;;;;;0.70;0.70;;;;;;;24.29;63.54;99927.00;5029514;28;20256;-80
2022/05/26 08:14:57;;;;;;;0.95;0.90;;;;;;;24.36;66.08;99913.69;5029679;28;20183;-80
2022/05/26 08:17:24;;;;;;;1.05;0.60;;;;;;;24.53;63.58;99922.16;5029368;28;20240;-80
2022/05/26 08:19:52;;;;;;;1.52;0.70;;;;;;;24.63;58.42;99923.88;5028642;28;20209;-80
2022/05/26 08:22:20;;;;;;;0.80;0.80;;;;;;;24.43;51.19;99905.09;5044502;28;20196;-79
2022/05/26 08:24:51;;;;;;;1.02;0.68;;;;;;;24.38;54.72;99914.22;5044759;28;20186;-80
2022/05/26 08:27:18;;;;;;;0.77;0.60;;;;;;;24.54;51.73;99921.00;5044541;28;20210;-80
2022/05/26 08:29:45;;;;;;;0.93;0.57;;;;;;;24.50;52.97;99914.53;5029527;28;20200;-79
2022/05/26 08:32:13;;;;;;;0.68;0.65;;;;;;;24.67;51.83;99913.91;5029243;28;20214;-80
2022/05/26 08:34:40;;;;;;;1.23;0.70;;;;;;;24.81;50.48;99917.47;5028291;28;20278;-80
2022/05/26 08:37:20;;;;;;;1.73;0.70;;;;;;;24.98;49.16;99908.63;5033317;28;20190;-80
2022/05/26 08:39:47;;;;;;;1.13;0.82;;;;;;;24.84;50.06;99910.53;5048522;28;20184;-80
2022/05/26 08:42:21;;;;;;;0.75;0.50;;;;;;;24.99;49.36;99910.25;5033203;28;20180;-80
2022/05/26 08:44:49;;;;;;;1.08;0.63;;;;;;;25.32;50.26;99908.13;5048563;28;20229;-79
2022/05/26 08:47:20;;;;;;;1.15;0.70;;;;;;;25.40;49.37;99907.38;5032868;28;20182;-80
2022/05/26 08:50:05;;;;;;;0.60;0.60;;;;;;;25.98;45.04;99909.25;5033349;28;20175;-80
2022/05/26 08:52:52;;;;;;;1.45;0.70;;;;;;;26.25;44.24;99911.84;5033142;28;20684;-81
2022/05/26 08:55:26;;;;;;;1.40;0.80;;;;;;;26.49;42.82;99906.78;5032730;28;20186;-80
2022/05/26 08:58:08;;;;;;;0.70;0.68;;;;;;;26.49;42.27;99908.72;5032737;28;20296;-80
2022/05/26 09:00:39;;;;;;;1.10;0.77;;;;;;;26.38;43.46;99905.44;5032848;28;20215;-80
2022/05/26 09:03:34;;;;;;;0.80;0.40;;;;;;;25.86;45.40;99913.38;5031663;28;20181;-82
2022/05/26 09:06:03;;;;;;;1.10;0.70;;;;;;;25.53;47.51;99911.16;5048254;28;20205;-80
2022/05/26 09:14:07;;;;;;;2.15;0.90;;;;;;;25.00;48.30;99914.63;5032266;28;20185;-80
2022/05/26 09:16:41;;;;;;;1.77;0.90;;;;;;;24.76;49.09;99912.09;5032899;28;20197;-80
2022/05/26 09:19:11;;;;;;;2.70;0.80;;;;;;;24.68;48.55;99921.03;5032431;28;20204;-80
2022/05/26 09:21:38;;;;;;;2.15;0.70;;;;;;;24.59;52.19;99916.56;5032606;28;20188;-80
2022/05/26 09:24:22;;;;;;;0.90;0.75;;;;;;;24.80;51.44;99910.34;5032500;28;20218;-83
2022/05/26 09:26:54;;;;;;;0.70;0.70;;;;;;;24.94;47.36;99916.66;5032450;28;20299;-80
2022/05/26 09:29:31;;;;;;;1.58;0.70;;;;;;;25.12;45.94;99919.56;5047130;28;20221;-80
2022/05/26 09:31:59;;;;;;;1.30;0.80;;;;;;;24.95;47.58;99907.31;5047584;28;20210;-80
2022/05/26 09:35:18;;;;;;;1.05;0.80;;;;;;;24.97;45.70;99910.53;5032172;28;20181;-81
2022/05/26 09:37:47;;;;;;;0.85;0.70;;;;;;;25.07;46.57;99919.66;5035239;28;20829;-80
2022/05/26 09:40:21;;;;;;;1.55;0.70;;;;;;;25.24;47.23;99911.63;5046515;28;20650;-80
2022/05/26 09:42:51;;;;;;;0.75;0.75;;;;;;;25.55;45.50;99911.72;5029838;28;20194;-80
2022/05/26 09:45:19;;;;;;;2.35;0.80;;;;;;;25.74;43.92;99915.09;5047442;28;20182;-80
2022/05/26 09:47:53;;;;;;;0.73;0.70;;;;;;;25.64;45.41;99905.16;5030519;28;20215;-80
2022/05/26 09:50:40;;;;;;;0.70;0.60;;;;;;;25.77;46.39;99912.53;5046832;28;20176;-80
2022/05/26 09:53:09;;;;;;;1.85;0.80;;;;;;;25.86;44.25;99913.38;5031597;28;20249;-80
2022/05/26 09:55:50;;;;;;;0.70;0.70;;;;;;;26.22;44.13;99907.00;5046861;28;20185;-79
2022/05/26 09:58:31;;;;;;;0.70;0.70;;;;;;;25.89;43.62;99906.47;5046905;28;20769;-80
2022/05/26 10:01:28;;;;;;;1.83;0.70;;;;;;;26.14;44.01;99897.53;5046948;28;20175;-81
2022/05/26 10:04:28;;;;;;;0.95;0.80;;;;;;;26.09;43.91;99902.34;5028409;28;20214;-80
2022/05/26 10:07:02;;;;;;;1.02;0.70;;;;;;;26.06;41.65;99903.00;5039383;28;20198;-80
2022/05/26 10:09:54;;;;;;;2.40;0.90;;;;;;;26.08;42.57;99915.28;5046518;28;20762;-79
2022/05/26 10:12:47;;;;;;;0.93;0.70;;;;;;;25.94;39.81;99903.59;5031473;28;20240;-79
2022/05/26 10:15:35;;;;;;;1.02;0.73;;;;;;;25.75;42.39;99909.28;5046643;28;20178;-80
2022/05/26 10:18:23;;;;;;;1.90;0.70;;;;;;;25.98;41.40;99910.06;5031446;28;20611;-80
2022/05/26 10:21:05;;;;;;;1.80;0.80;;;;;;;25.86;41.48;99904.34;5030255;28;20173;-80
2022/05/26 10:23:54;;;;;;;1.20;0.57;;;;;;;25.82;39.52;99906.09;5031749;28;20189;-80
2022/05/26 10:26:30;;;;;;;1.10;0.90;;;;;;;25.74;39.27;99912.34;5031128;28;20213;-80
2022/05/26 10:29:28;;;;;;;0.90;0.80;;;;;;;25.66;40.96;99911.13;5046475;28;20262;-81
2022/05/26 10:32:16;;;;;;;2.15;0.90;;;;;;;25.85;41.64;99909.00;5031250;28;20208;-80
2022/05/26 10:34:53;;;;;;;2.38;0.70;;;;;;;25.83;39.20;99894.81;5031201;28;20240;-80
2022/05/26 10:37:23;;;;;;;0.80;0.60;;;;;;;25.97;38.92;99894.72;5029724;28;20247;-80
2022/05/26 10:40:20;;;;;;;1.98;0.70;;;;;;;25.92;38.60;99883.88;5046315;28;20190;-79
2022/05/26 10:43:03;;;;;;;1.25;0.77;;;;;;;26.00;38.13;99880.34;5045922;28;20248;-80
2022/05/26 10:45:37;;;;;;;1.98;0.60;;;;;;;26.11;37.07;99886.38;5030958;28;20180;-80
2022/05/26 10:48:15;;;;;;;1.02;0.70;;;;;;;25.72;37.79;99884.38;5029757;28;20204;-80
2022/05/26 10:51:06;;;;;;;1.52;0.70;;;;;;;25.92;37.93;99872.91;5030018;28;20199;-81
2022/05/26 10:54:21;;;;;;;0.80;0.63;;;;;;;25.85;37.13;99876.06;5030771;28;20209;-80
2022/05/26 10:57:15;;;;;;;1.17;0.70;;;;;;;25.99;38.40;99872.44;5045857;28;20255;-80
2022/05/26 10:59:49;;;;;;;0.65;0.60;;;;;;;26.13;38.08;99870.41;5030255;28;20171;-79
2022/05/26 11:02:43;;;;;;;0.65;0.60;;;;;;;26.13;37.25;99890.44;5045837;28;20239;-80
2022/05/26 11:05:22;;;;;;;1.40;0.80;;;;;;;25.96;37.71;99882.13;5042791;28;20233;-80
2022/05/26 11:07:52;;;;;;;0.70;0.70;;;;;;;26.14;39.20;99881.06;5029523;28;20211;-79
2022/05/26 11:10:24;;;;;;;0.80;0.70;;;;;;;26.22;38.54;99887.78;5045735;28;20188;-79
2022/05/26 11:12:59;;;;;;;0.93;0.80;;;;;;;26.30;38.38;99881.50;5029223;28;20199;-80
2022/05/26 11:18:34;;;;;;;1.13;0.75;;;;;;;26.56;35.40;99871.38;5043254;28;20175;-80
2022/05/26 11:21:00;;;;;;;1.38;0.80;;;;;;;27.03;36.47;99877.16;5045809;28;20201;-80
2022/05/26 11:23:30;;;;;;;2.67;0.68;;;;;;;27.02;35.87;99864.53;5030184;28;20626;-80
2022/05/26 11:26:08;;;;;;;2.58;0.80;;;;;;;27.23;34.17;99865.53;5030163;28;20223;-80
2022/05/26 11:28:43;;;;;;;1.48;0.70;;;;;;;27.09;33.99;99876.69;5045435;28;20175;-80
2022/05/26 11:37:23;;;;;;;1.10;0.70;;;;;;;27.25;35.63;99857.75;5043324;28;20178;-80
2022/05/26 11:39:58;;;;;;;1.17;0.80;;;;;;;27.36;36.61;99858.22;5045356;28;20216;-80
2022/05/26 11:42:30;;;;;;;2.00;0.80;;;;;;;27.47;37.27;99865.03;5029691;28;20211;-79
2022/05/26 11:45:20;;;;;;;2.42;0.70;;;;;;;27.65;37.55;99861.13;5028643;28;20556;-81
2022/05/26 11:47:48;;;;;;;2.42;0.85;;;;;;;27.07;37.26;99859.69;5030087;28;20234;-80
2022/05/26 11:50:33;;;;;;;3.38;0.80;;;;;;;27.06;36.77;99855.31;5044933;28;20208;-80
2022/05/26 11:53:03;;;;;;;2.15;0.80;;;;;;;26.94;38.11;99855.16;5029805;28;20850;-79
2022/05/26 11:55:33;;;;;;;1.63;0.60;;;;;;;27.05;37.87;99855.66;5028319;28;20237;-80
2022/05/26 11:58:34;;;;;;;0.75;0.60;;;;;;;27.42;38.40;99851.44;5029657;28;20253;-80
2022/05/26 12:01:10;;;;;;;0.93;0.93;;;;;;;27.71;36.73;99842.50;5029337;28;20255;-80
2022/05/26 12:03:56;;;;;;;0.82;0.68;;;;;;;28.40;35.77;99852.13;5029949;28;20220;-80
2022/05/26 12:06:38;;;;;;;3.95;0.80;;;;;;;28.33;33.41;99843.56;5029720;28;20254;-79
2022/05/26 12:09:07;;;;;;;2.25;0.77;;;;;;;28.56;33.20;99855.13;5029448;28;20193;-81
2022/05/26 12:11:56;;;;;;;2.05;0.70;;;;;;;28.48;32.16;99844.94;5032853;28;20186;-80
2022/05/26 12:14:26;;;;;;;0.82;0.50;;;;;;;29.18;31.82;99846.91;5033493;28;20202;-79
2022/05/26 12:17:26;;;;;;;0.70;0.70;;;;;;;28.93;30.53;99839.66;5033927;28;20175;-79
2022/05/26 12:19:53;;;;;;;1.10;0.60;;;;;;;29.02;30.80;99834.09;5033648;28;20623;-80
2022/05/26 12:22:26;;;;;;;0.80;0.65;;;;;;;28.63;30.66;99833.34;5048715;28;20716;-81
2022/05/26 12:24:59;;;;;;;1.80;0.80;;;;;;;28.36;30.94;99836.59;5033645;28;20198;-80
2022/05/26 12:27:54;;;;;;;0.93;0.70;;;;;;;28.24;31.86;99837.31;5033440;28;20179;-80
2022/05/26 12:30:33;;;;;;;0.95;0.50;;;;;;;28.25;30.55;99835.34;5033143;28;20730;-79
2022/05/26 12:33:09;;;;;;;1.77;0.70;;;;;;;28.60;30.78;99827.72;5033469;28;20190;-81
2022/05/26 12:36:02;;;;;;;2.00;0.80;;;;;;;29.09;30.83;99840.66;5033503;28;20210;-79